createdAt,value
2018-03-19T00:00:15.277Z,-0.80
2018-03-19T00:02:43.596Z,-0.80
2018-03-19T00:05:11.928Z,-0.80
2018-03-19T00:07:40.270Z,-0.80
2018-03-19T00:10:08.574Z,-0.90
2018-03-19T00:12:36.898Z,-0.90
2018-03-19T00:15:05.234Z,-0.90
2018-03-19T00:17:34.330Z,-0.90
2018-03-19T00:20:03.566Z,-0.90
2018-03-19T00:22:31.882Z,-0.90
2018-03-19T00:25:00.187Z,-0.90
2018-03-19T00:27:29.263Z,-0.90
2018-03-19T00:29:57.574Z,-1.00
2018-03-19T00:32:26.676Z,-0.90
2018-03-19T00:34:55.761Z,-0.90
2018-03-19T00:37:24.062Z,-0.90
2018-03-19T00:39:53.144Z,-1.00
2018-03-19T00:42:21.480Z,-1.00
2018-03-19T00:44:49.806Z,-1.00
2018-03-19T00:47:18.126Z,-1.10
2018-03-19T00:49:46.501Z,-1.10
2018-03-19T00:52:14.796Z,-1.10
2018-03-19T00:54:43.115Z,-1.10
2018-03-19T00:57:11.425Z,-1.10
2018-03-19T00:59:40.569Z,-1.10
2018-03-19T01:02:08.934Z,-1.10
2018-03-19T01:04:37.240Z,-1.10
2018-03-19T01:07:05.554Z,-1.20
2018-03-19T01:09:33.871Z,-1.20
2018-03-19T01:12:02.955Z,-1.20
2018-03-19T01:14:32.024Z,-1.20
2018-03-19T01:17:00.334Z,-1.20
2018-03-19T01:19:29.436Z,-1.20
2018-03-19T01:21:58.594Z,-1.30
2018-03-19T01:24:26.920Z,-1.30
2018-03-19T01:26:55.992Z,-1.30
2018-03-19T01:29:24.301Z,-1.30
2018-03-19T01:31:53.518Z,-1.30
2018-03-19T01:34:22.574Z,-1.30
2018-03-19T01:36:50.891Z,-1.30
2018-03-19T01:39:19.966Z,-1.30
2018-03-19T01:41:48.283Z,-1.40
2018-03-19T01:44:16.688Z,-1.40
2018-03-19T01:46:45.003Z,-1.40
2018-03-19T01:49:13.321Z,-1.40
2018-03-19T01:51:42.410Z,-1.40
2018-03-19T01:54:12.093Z,-1.50
2018-03-19T01:56:40.413Z,-1.50
2018-03-19T01:59:09.502Z,-1.50
2018-03-19T02:01:37.816Z,-1.60
2018-03-19T02:04:06.120Z,-1.60
2018-03-19T02:06:34.433Z,-1.60
2018-03-19T02:09:02.742Z,-1.60
2018-03-19T02:11:31.819Z,-1.70
2018-03-19T02:14:00.143Z,-1.70
2018-03-19T02:16:28.465Z,-1.70
2018-03-19T02:18:56.776Z,-1.70
2018-03-19T02:21:25.080Z,-1.70
2018-03-19T02:23:53.401Z,-1.70
2018-03-19T02:26:21.788Z,-1.70
2018-03-19T02:28:50.115Z,-1.70
2018-03-19T02:31:19.201Z,-1.70
2018-03-19T02:33:47.545Z,-1.70
2018-03-19T02:36:15.852Z,-1.70
2018-03-19T02:38:44.187Z,-1.70
2018-03-19T02:41:12.496Z,-1.70
2018-03-19T02:43:40.814Z,-1.70
2018-03-19T02:46:09.139Z,-1.70
2018-03-19T02:48:37.448Z,-1.70
2018-03-19T02:51:05.773Z,-1.80
2018-03-19T02:53:34.851Z,-1.90
2018-03-19T02:56:03.168Z,-1.80
2018-03-19T02:58:32.271Z,-1.90
2018-03-19T03:01:00.593Z,-1.90
2018-03-19T03:03:28.919Z,-2.00
2018-03-19T03:05:58.052Z,-2.00
2018-03-19T03:08:26.359Z,-2.00
2018-03-19T03:10:54.653Z,-2.10
2018-03-19T03:13:23.000Z,-2.10
2018-03-19T03:15:51.300Z,-2.10
2018-03-19T03:18:19.600Z,-2.10
2018-03-19T03:20:47.910Z,-2.10
2018-03-19T03:23:16.989Z,-2.20
2018-03-19T03:25:45.309Z,-2.20
2018-03-19T03:28:13.651Z,-2.20
2018-03-19T03:30:41.978Z,-2.30
2018-03-19T03:33:10.283Z,-2.30
2018-03-19T03:35:38.584Z,-2.30
2018-03-19T03:38:06.903Z,-2.30
2018-03-19T03:40:35.985Z,-2.30
2018-03-19T03:43:04.288Z,-2.40
2018-03-19T03:45:33.391Z,-2.30
2018-03-19T03:48:02.500Z,-2.30
2018-03-19T03:50:31.598Z,-2.30
2018-03-19T03:52:59.905Z,-2.30
2018-03-19T03:55:28.280Z,-2.30
2018-03-19T03:57:56.595Z,-2.30
2018-03-19T04:00:24.916Z,-2.30
2018-03-19T04:02:53.978Z,-2.30
2018-03-19T04:05:22.292Z,-2.30
2018-03-19T04:07:51.372Z,-2.30
2018-03-19T04:10:19.693Z,-2.30
2018-03-19T04:12:48.069Z,-2.30
2018-03-19T04:15:16.370Z,-2.30
2018-03-19T04:17:44.686Z,-2.30
2018-03-19T04:20:12.995Z,-2.30
2018-03-19T04:22:41.303Z,-2.30
2018-03-19T04:25:09.625Z,-2.30
2018-03-19T04:27:37.921Z,-2.30
2018-03-19T04:30:06.247Z,-2.30
2018-03-19T04:32:34.547Z,-2.30
2018-03-19T04:35:02.931Z,-2.30
2018-03-19T04:37:31.263Z,-2.30
2018-03-19T04:39:59.573Z,-2.30
2018-03-19T04:42:27.887Z,-2.30
2018-03-19T04:44:56.199Z,-2.30
2018-03-19T04:47:24.529Z,-2.30
2018-03-19T04:49:52.827Z,-2.30
2018-03-19T04:52:21.137Z,-2.30
2018-03-19T04:54:49.495Z,-2.40
2018-03-19T04:57:17.807Z,-2.40
2018-03-19T04:59:46.108Z,-2.40
2018-03-19T05:02:15.209Z,-2.50
2018-03-19T05:04:44.291Z,-2.50
2018-03-19T05:07:12.597Z,-2.50
2018-03-19T05:09:41.673Z,-2.60
2018-03-19T05:12:09.979Z,-2.60
2018-03-19T05:14:39.049Z,-2.60
2018-03-19T05:17:07.439Z,-2.60
2018-03-19T05:19:35.751Z,-2.70
2018-03-19T05:22:04.822Z,-2.80
2018-03-19T05:24:33.143Z,-2.80
2018-03-19T05:27:01.458Z,-2.80
2018-03-19T05:29:29.754Z,-2.70
2018-03-19T05:31:58.071Z,-2.70
2018-03-19T05:34:27.141Z,-2.70
2018-03-19T05:36:55.449Z,-2.80
2018-03-19T05:39:24.527Z,-2.70
2018-03-19T05:41:52.841Z,-2.70
2018-03-19T05:44:21.923Z,-2.70
2018-03-19T05:46:50.998Z,-2.70
2018-03-19T05:49:19.317Z,-2.70
2018-03-19T05:51:48.411Z,-2.70
2018-03-19T05:54:17.545Z,-2.70
2018-03-19T05:56:45.896Z,-2.70
2018-03-19T05:59:14.206Z,-2.70
2018-03-19T06:01:43.238Z,-2.70
2018-03-19T06:04:11.559Z,-2.70
2018-03-19T06:06:40.645Z,-2.60
2018-03-19T06:09:08.943Z,-2.60
2018-03-19T06:11:38.033Z,-2.50
2018-03-19T06:14:07.091Z,-2.50
2018-03-19T06:16:35.423Z,-2.50
2018-03-19T06:19:03.747Z,-2.40
2018-03-19T06:21:32.053Z,-2.30
2018-03-19T06:24:00.388Z,-2.30
2018-03-19T06:26:28.698Z,-2.20
2018-03-19T06:28:57.789Z,-2.10
2018-03-19T06:31:26.126Z,-2.10
2018-03-19T06:33:55.231Z,-1.90
2018-03-19T06:36:24.339Z,-1.80
2018-03-19T06:38:52.721Z,-1.90
2018-03-19T06:41:21.042Z,-1.80
2018-03-19T06:43:49.401Z,-1.70
2018-03-19T06:46:17.803Z,-1.70
2018-03-19T06:48:46.145Z,-1.60
2018-03-19T06:51:16.113Z,-1.40
2018-03-19T06:53:44.547Z,-1.40
2018-03-19T06:56:13.681Z,-1.30
2018-03-19T06:58:41.992Z,-1.30
2018-03-19T07:01:10.345Z,-1.20
2018-03-19T07:03:38.689Z,-1.10
2018-03-19T07:06:07.807Z,-1.00
2018-03-19T07:08:36.211Z,-1.00
2018-03-19T07:11:04.593Z,-0.90
2018-03-19T07:13:32.930Z,-0.90
2018-03-19T07:16:02.052Z,-0.70
2018-03-19T07:18:30.391Z,-0.70
2018-03-19T07:20:59.879Z,-0.60
2018-03-19T07:23:28.239Z,-0.50
2018-03-19T07:25:57.457Z,-0.50
2018-03-19T07:28:25.882Z,-0.40
2018-03-19T07:30:54.181Z,-0.30
2018-03-19T07:33:22.493Z,-0.30
2018-03-19T07:35:50.829Z,-0.20
2018-03-19T07:38:19.132Z,-0.20
2018-03-19T07:40:48.209Z,-0.10
2018-03-19T07:43:16.540Z,-0.10
2018-03-19T07:45:46.023Z,0.00
2018-03-19T07:48:15.157Z,0.10
2018-03-19T07:50:43.493Z,0.10
2018-03-19T07:53:11.926Z,0.20
2018-03-19T07:55:40.231Z,0.20
2018-03-19T07:58:08.568Z,0.20
2018-03-19T08:00:36.864Z,0.30
2018-03-19T08:03:05.157Z,0.30
2018-03-19T08:05:33.509Z,0.40
2018-03-19T08:08:02.739Z,0.50
2018-03-19T08:10:31.094Z,0.50
2018-03-19T08:13:00.211Z,0.60
2018-03-19T08:15:28.554Z,0.60
2018-03-19T08:17:57.629Z,0.70
2018-03-19T08:20:25.963Z,0.70
2018-03-19T08:22:55.183Z,0.80
2018-03-19T08:25:23.529Z,0.80
2018-03-19T08:27:52.611Z,0.90
2018-03-19T08:30:20.969Z,0.90
2018-03-19T08:32:49.322Z,1.00
2018-03-19T08:35:17.659Z,1.10
2018-03-19T08:37:45.983Z,1.20
2018-03-19T08:40:14.283Z,1.20
2018-03-19T08:42:42.608Z,1.20
2018-03-19T08:45:10.935Z,1.30
2018-03-19T08:47:39.249Z,1.40
2018-03-19T08:50:07.584Z,1.40
2018-03-19T08:52:36.665Z,1.50
2018-03-19T08:55:05.728Z,1.60
2018-03-19T08:57:34.075Z,1.60
2018-03-19T09:00:02.386Z,1.70
2018-03-19T09:02:30.695Z,1.70
2018-03-19T09:04:59.051Z,1.80
2018-03-19T09:07:27.369Z,1.80
2018-03-19T09:09:55.671Z,2.00
2018-03-19T09:12:24.747Z,2.10
2018-03-19T09:14:53.093Z,2.10
2018-03-19T09:17:21.437Z,2.30
2018-03-19T09:19:50.550Z,2.40
2018-03-19T09:22:18.899Z,2.40
2018-03-19T09:24:48.039Z,2.60
2018-03-19T09:27:16.355Z,2.50
2018-03-19T09:29:44.708Z,2.70
2018-03-19T09:32:13.024Z,2.80
2018-03-19T09:34:41.361Z,2.80
2018-03-19T09:37:09.676Z,2.90
2018-03-19T09:39:38.010Z,3.00
2018-03-19T09:42:07.115Z,3.10
2018-03-19T09:44:36.215Z,3.20
2018-03-19T09:47:05.308Z,3.30
2018-03-19T09:49:34.387Z,3.40
2018-03-19T09:52:02.680Z,3.40
2018-03-19T09:54:31.003Z,3.50
2018-03-19T09:56:59.324Z,3.60
2018-03-19T09:59:27.667Z,3.70
2018-03-19T10:01:55.990Z,3.70
2018-03-19T10:04:24.347Z,3.90
2018-03-19T10:06:52.707Z,3.90
2018-03-19T10:09:21.727Z,3.90
2018-03-19T10:11:50.073Z,4.00
2018-03-19T10:14:19.169Z,4.20
2018-03-19T10:16:48.268Z,4.30
2018-03-19T10:19:17.394Z,4.30
2018-03-19T10:21:45.750Z,4.30
2018-03-19T10:24:14.816Z,4.40
2018-03-19T10:26:43.122Z,4.40
2018-03-19T10:29:11.434Z,4.50
2018-03-19T10:31:39.737Z,4.60
2018-03-19T10:34:08.073Z,4.70
2018-03-19T10:36:36.392Z,4.70
2018-03-19T10:39:04.729Z,4.80
2018-03-19T10:41:33.794Z,4.90
2018-03-19T10:44:02.119Z,4.90
2018-03-19T10:46:31.256Z,5.20
2018-03-19T10:48:59.572Z,5.20
2018-03-19T10:51:27.882Z,5.30
2018-03-19T10:53:56.975Z,5.40
2018-03-19T10:56:25.293Z,5.40
2018-03-19T10:58:53.878Z,5.50
2018-03-19T11:01:27.607Z,5.60
2018-03-19T11:04:01.733Z,5.70
2018-03-19T11:06:35.606Z,5.90
2018-03-19T11:09:10.823Z,5.90
2018-03-19T11:11:39.911Z,6.10
2018-03-19T11:14:09.023Z,6.30
2018-03-19T11:16:38.085Z,6.40
2018-03-19T11:19:06.403Z,6.30
2018-03-19T11:21:35.503Z,6.50
2018-03-19T11:24:04.636Z,6.60
2018-03-19T11:26:32.963Z,6.60
2018-03-19T11:29:01.426Z,6.60
2018-03-19T11:31:29.734Z,6.60
2018-03-19T11:33:58.817Z,6.80
2018-03-19T11:36:27.157Z,6.80
2018-03-19T11:38:55.459Z,6.80
2018-03-19T11:41:23.814Z,7.00
2018-03-19T11:43:52.124Z,7.20
2018-03-19T11:46:20.439Z,7.40
2018-03-19T11:48:48.741Z,7.70
2018-03-19T11:51:17.821Z,8.40
2018-03-19T11:53:46.150Z,8.40
2018-03-19T11:56:14.473Z,8.80
2018-03-19T11:58:42.804Z,9.40
2018-03-19T12:01:11.896Z,10.40
2018-03-19T12:03:40.971Z,10.80
2018-03-19T12:06:09.307Z,10.80
2018-03-19T12:08:37.713Z,11.30
2018-03-19T12:11:06.016Z,11.80
2018-03-19T12:13:34.312Z,12.30
2018-03-19T12:16:02.639Z,12.80
2018-03-19T12:18:30.997Z,13.20
2018-03-19T12:21:00.064Z,14.20
2018-03-19T12:23:28.375Z,14.20
2018-03-19T12:25:57.451Z,15.30
2018-03-19T12:28:25.768Z,15.20
2018-03-19T12:30:54.083Z,15.80
2018-03-19T12:33:22.403Z,16.20
2018-03-19T12:35:50.730Z,16.60
2018-03-19T12:38:19.171Z,17.10
2018-03-19T12:40:48.270Z,17.60
2018-03-19T12:43:17.407Z,17.90
2018-03-19T12:45:46.082Z,17.90
2018-03-19T12:48:15.150Z,18.70
2018-03-19T12:50:43.552Z,18.70
2018-03-19T12:53:11.864Z,19.10
2018-03-19T12:55:40.194Z,19.40
2018-03-19T12:58:08.490Z,19.70
2018-03-19T13:00:36.851Z,20.10
2018-03-19T13:03:05.174Z,20.40
2018-03-19T13:05:34.295Z,21.10
2018-03-19T13:08:02.680Z,21.10
2018-03-19T13:10:31.008Z,21.50
2018-03-19T13:12:59.307Z,21.80
2018-03-19T13:15:28.392Z,22.30
2018-03-19T13:17:56.698Z,22.20
2018-03-19T13:20:25.784Z,22.80
2018-03-19T13:22:54.133Z,22.80
2018-03-19T13:25:22.446Z,22.70
2018-03-19T13:27:50.749Z,22.90
2018-03-19T13:30:19.821Z,23.40
2018-03-19T13:32:48.207Z,23.40
2018-03-19T13:35:16.650Z,23.80
2018-03-19T13:37:44.972Z,23.90
2018-03-19T13:40:13.278Z,23.90
2018-03-19T13:42:42.415Z,24.10
2018-03-19T13:45:10.755Z,24.10
2018-03-19T13:47:39.911Z,24.60
2018-03-19T13:50:08.229Z,24.50
2018-03-19T13:52:36.637Z,24.90
2018-03-19T13:55:04.947Z,25.00
2018-03-19T13:57:33.318Z,25.10
2018-03-19T14:00:01.670Z,25.20
2018-03-19T14:02:30.085Z,25.10
2018-03-19T14:04:58.760Z,25.10
2018-03-19T14:07:27.095Z,25.10
2018-03-19T14:09:55.412Z,25.00
2018-03-19T14:12:23.730Z,24.90
2018-03-19T14:14:52.034Z,24.90
2018-03-19T14:17:20.381Z,24.90
2018-03-19T14:19:48.712Z,24.80
2018-03-19T14:22:17.034Z,24.80
2018-03-19T14:24:45.344Z,24.90
2018-03-19T14:27:13.680Z,25.00
2018-03-19T14:29:42.770Z,24.90
2018-03-19T14:32:12.103Z,24.90
2018-03-19T14:34:40.434Z,24.90
2018-03-19T14:37:08.765Z,24.70
2018-03-19T14:39:37.879Z,24.90
2018-03-19T14:42:06.192Z,24.90
2018-03-19T14:44:34.498Z,25.10
2018-03-19T14:47:02.807Z,25.00
2018-03-19T14:49:31.908Z,25.00
2018-03-19T14:52:00.984Z,24.80
2018-03-19T14:54:29.317Z,24.80
2018-03-19T14:56:58.047Z,24.70
2018-03-19T14:59:26.333Z,24.60
2018-03-19T15:01:54.696Z,24.40
2018-03-19T15:04:23.128Z,24.30
2018-03-19T15:06:51.460Z,24.40
2018-03-19T15:09:19.779Z,24.50
2018-03-19T15:11:48.882Z,24.60
2018-03-19T15:14:17.970Z,24.60
2018-03-19T15:16:46.276Z,24.60
2018-03-19T15:19:15.339Z,24.20
2018-03-19T15:21:43.651Z,24.20
2018-03-19T15:24:13.354Z,24.20
2018-03-19T15:26:41.696Z,24.20
2018-03-19T15:29:10.029Z,24.10
2018-03-19T15:31:38.368Z,24.00
2018-03-19T15:34:06.663Z,24.10
2018-03-19T15:36:35.003Z,24.20
2018-03-19T15:39:03.369Z,24.20
2018-03-19T15:41:31.692Z,24.20
2018-03-19T15:44:00.034Z,24.20
2018-03-19T15:46:28.437Z,24.00
2018-03-19T15:48:56.748Z,24.00
2018-03-19T15:51:25.096Z,23.80
2018-03-19T15:53:53.416Z,23.90
2018-03-19T15:56:22.068Z,24.00
2018-03-19T15:58:50.388Z,24.00
2018-03-19T16:01:18.690Z,24.00
2018-03-19T16:03:47.008Z,23.80
2018-03-19T16:06:15.362Z,23.60
2018-03-19T16:08:44.474Z,22.80
2018-03-19T16:11:14.142Z,22.30
2018-03-19T16:13:42.451Z,22.20
2018-03-19T16:16:11.630Z,21.20
2018-03-19T16:18:39.942Z,21.10
2018-03-19T16:21:08.277Z,21.00
2018-03-19T16:23:36.588Z,21.00
2018-03-19T16:26:05.001Z,21.10
2018-03-19T16:28:34.126Z,21.20
2018-03-19T16:31:02.470Z,21.20
2018-03-19T16:33:30.784Z,21.10
2018-03-19T16:35:59.362Z,20.90
2018-03-19T16:38:27.684Z,20.60
2018-03-19T16:40:55.984Z,20.20
2018-03-19T16:43:25.068Z,18.70
2018-03-19T16:45:53.391Z,18.60
2018-03-19T16:48:22.502Z,18.00
2018-03-19T16:50:51.616Z,17.90
2018-03-19T16:53:19.952Z,17.90
2018-03-19T16:55:48.281Z,17.80
2018-03-19T16:58:16.607Z,17.60
2018-03-19T17:00:44.959Z,17.50
2018-03-19T17:03:13.562Z,17.40
2018-03-19T17:05:41.870Z,17.30
2018-03-19T17:10:45.354Z,16.60
2018-03-19T17:13:13.680Z,16.60
2018-03-19T17:15:42.012Z,16.10
2018-03-19T17:18:10.402Z,15.20
2018-03-19T17:20:39.786Z,13.10
2018-03-19T17:23:08.121Z,13.00
2018-03-19T17:25:36.442Z,12.10
2018-03-19T17:28:05.582Z,10.40
2018-03-19T17:30:33.895Z,10.40
2018-03-19T17:33:02.226Z,9.50
2018-03-19T17:35:30.546Z,8.80
2018-03-19T17:37:58.868Z,8.00
2018-03-19T17:40:28.178Z,6.80
2018-03-19T17:42:57.400Z,6.20
2018-03-19T17:45:25.701Z,6.20
2018-03-19T17:47:54.030Z,5.80
2018-03-19T17:50:22.380Z,5.30
2018-03-19T17:52:51.139Z,5.00
2018-03-19T17:55:19.522Z,4.60
2018-03-19T17:57:47.927Z,4.30
2018-03-19T18:00:16.275Z,4.10
2018-03-19T18:02:44.606Z,3.80
2018-03-19T18:05:12.962Z,3.60
2018-03-19T18:07:41.282Z,3.40
2018-03-19T18:10:09.638Z,3.20
2018-03-19T18:12:37.946Z,3.00
2018-03-19T18:15:06.301Z,2.80
2018-03-19T18:17:34.618Z,2.80
2018-03-19T18:20:02.944Z,2.60
2018-03-19T18:22:31.281Z,2.40
2018-03-19T18:25:00.436Z,2.20
2018-03-19T18:27:28.827Z,2.20
2018-03-19T18:29:57.159Z,2.10
2018-03-19T18:32:26.288Z,1.80
2018-03-19T18:34:54.628Z,1.80
2018-03-19T18:37:22.984Z,1.70
2018-03-19T18:39:51.824Z,1.60
2018-03-19T18:42:20.780Z,1.60
2018-03-19T18:44:49.109Z,1.50
2018-03-19T18:47:18.343Z,1.30
2018-03-19T18:49:46.692Z,1.30
2018-03-19T18:52:15.820Z,1.20
2018-03-19T18:54:44.173Z,1.20
2018-03-19T18:57:14.221Z,1.00
2018-03-19T18:59:42.596Z,1.00
2018-03-19T19:02:10.990Z,1.00
2018-03-19T19:04:39.359Z,0.90
2018-03-19T19:07:07.698Z,0.80
2018-03-19T19:09:36.050Z,0.80
2018-03-19T19:12:04.435Z,0.80
2018-03-19T19:14:32.777Z,0.70
2018-03-19T19:17:01.884Z,0.70
2018-03-19T19:19:30.249Z,0.60
2018-03-19T19:21:58.585Z,0.60
2018-03-19T19:24:26.939Z,0.50
2018-03-19T19:26:55.304Z,0.50
2018-03-19T19:29:23.803Z,0.30
2018-03-19T19:31:52.910Z,0.30
2018-03-19T19:34:21.271Z,0.30
2018-03-19T19:36:50.456Z,0.20
2018-03-19T19:39:18.799Z,0.10
2018-03-19T19:41:47.145Z,0.10
2018-03-19T19:44:16.304Z,-0.20
2018-03-19T19:46:44.678Z,-0.20
2018-03-19T19:49:13.049Z,-0.30
2018-03-19T19:51:41.432Z,-0.30
2018-03-19T19:54:09.824Z,-0.30
2018-03-19T19:56:38.331Z,-0.40
2018-03-19T19:59:06.683Z,-0.40
2018-03-19T20:01:35.068Z,-0.40
2018-03-19T20:04:03.411Z,-0.40
2018-03-19T20:06:32.601Z,-0.40
2018-03-19T20:09:02.061Z,-0.40
2018-03-19T20:11:30.522Z,-0.40
2018-03-19T20:13:58.912Z,-0.40
2018-03-19T20:16:27.292Z,-0.40
2018-03-19T20:18:55.662Z,-0.50
2018-03-19T20:21:24.821Z,-0.50
2018-03-19T20:23:53.232Z,-0.50
2018-03-19T20:26:21.581Z,-0.50
2018-03-19T20:28:49.972Z,-0.50
2018-03-19T20:31:18.318Z,-0.50
2018-03-19T20:33:46.681Z,-0.50
2018-03-19T20:36:15.807Z,-0.60
2018-03-19T20:38:44.361Z,-0.60
2018-03-19T20:41:13.550Z,-0.60
2018-03-19T20:43:41.910Z,-0.70
2018-03-19T20:46:10.585Z,-0.60
2018-03-19T20:48:38.980Z,-0.60
2018-03-19T20:51:08.193Z,-0.60
2018-03-19T20:53:36.552Z,-0.50
2018-03-19T20:56:04.967Z,-0.30
2018-03-19T20:58:33.387Z,0.00
2018-03-19T21:01:02.518Z,0.30
2018-03-19T21:03:30.880Z,0.30
2018-03-19T21:05:59.267Z,0.40
2018-03-19T21:08:28.176Z,0.40
2018-03-19T21:10:56.565Z,0.40
2018-03-19T21:13:24.921Z,0.40
2018-03-19T21:15:53.302Z,0.40
2018-03-19T21:18:21.656Z,0.30
2018-03-19T21:20:50.051Z,0.30
2018-03-19T21:23:19.163Z,0.40
2018-03-19T21:25:48.280Z,0.60
2018-03-19T21:28:16.599Z,0.60
2018-03-19T21:30:44.985Z,0.70
2018-03-19T21:33:13.335Z,0.90
2018-03-19T21:35:41.777Z,1.00
2018-03-19T21:38:10.191Z,1.10
2018-03-19T21:40:38.491Z,1.20
2018-03-19T21:43:06.912Z,1.30
2018-03-19T21:45:35.208Z,1.50
2018-03-19T21:48:03.524Z,1.60
2018-03-19T21:50:31.835Z,1.70
2018-03-19T21:53:00.143Z,1.80
2018-03-19T21:55:28.516Z,1.90
2018-03-19T21:57:57.561Z,2.10
2018-03-19T22:00:26.636Z,2.20
2018-03-19T22:02:54.945Z,2.20
2018-03-19T22:05:24.022Z,2.30
2018-03-19T22:07:52.334Z,2.30
2018-03-19T22:10:20.677Z,2.30
2018-03-19T22:12:49.018Z,2.30
2018-03-19T22:15:17.362Z,2.20
2018-03-19T22:17:46.531Z,2.00
2018-03-19T22:20:14.873Z,2.00
2018-03-19T22:22:43.197Z,1.90
2018-03-19T22:25:11.544Z,1.70
2018-03-19T22:27:39.894Z,1.50
2018-03-19T22:30:08.966Z,1.30
2018-03-19T22:32:37.278Z,1.30
2018-03-19T22:35:06.376Z,1.40
2018-03-19T22:37:35.497Z,1.50
2018-03-19T22:40:03.880Z,1.40
2018-03-19T22:42:32.170Z,1.50
2018-03-19T22:45:00.542Z,1.50
2018-03-19T22:47:28.890Z,1.60
2018-03-19T22:49:57.215Z,1.70
2018-03-19T22:52:25.547Z,1.80
2018-03-19T22:54:53.898Z,1.80
2018-03-19T22:57:23.005Z,2.00
2018-03-19T22:59:51.311Z,2.00
2018-03-19T23:02:19.626Z,2.10
2018-03-19T23:18:29.293Z,2.30
2018-03-19T23:20:57.661Z,2.30
2018-03-19T23:23:26.044Z,2.30
2018-03-19T23:25:54.361Z,2.40
2018-03-19T23:28:22.737Z,2.40
2018-03-19T23:30:51.053Z,2.40
2018-03-19T23:33:19.363Z,2.40
2018-03-19T23:35:48.480Z,2.40
2018-03-19T23:38:16.865Z,2.50
2018-03-19T23:40:45.225Z,2.50
2018-03-19T23:43:13.569Z,2.50
2018-03-19T23:45:42.913Z,2.60
2018-03-19T23:48:11.260Z,2.60
2018-03-19T23:50:40.355Z,2.70
2018-03-19T23:53:09.445Z,2.70
2018-03-19T23:55:37.745Z,2.70
2018-03-19T23:58:06.821Z,2.80
